Time;durP1;ratioP1;P1;durP2;ratioP2;P2;SDS_P1;SDS_P2;PMS_P1;PMS_P2;Temp;Humidity;BMP_temperature;BMP_pressure;BME280_temperature;BME280_humidity;BME280_pressure;Samples;Min_cycle;Max_cycle;Signal;HPM_P1;HPM_P2
2023/06/03 00:00:41;;;;;;;;;;;;;;;6.25;74.12;102432.22;4991244;28;19924;-76
2023/06/03 00:03:13;;;;;;;;;;;;;;;6.22;74.41;102428.09;4980652;28;20423;-76
2023/06/03 00:05:39;;;;;;;;;;;;;;;6.25;74.65;102426.91;4978985;28;19918;-76
2023/06/03 00:08:04;;;;;;;;;;;;;;;6.18;74.64;102429.53;4997746;28;20031;-76
2023/06/03 00:10:29;;;;;;;;;;;;;;;6.15;74.96;102421.94;4980070;28;20378;-76
2023/06/03 00:12:55;;;;;;;;;;;;;;;6.03;75.01;102428.88;5001260;28;19920;-76
2023/06/03 00:15:21;;;;;;;;;;;;;;;6.06;75.94;102433.78;5029412;28;19966;-77
2023/06/03 00:17:46;;;;;;;;;;;;;;;6.01;75.57;102436.19;4981874;28;19921;-76
2023/06/03 00:20:12;;;;;;;;;;;;;;;5.95;75.98;102431.66;4998573;28;20703;-76
2023/06/03 00:22:38;;;;;;;;;;;;;;;5.91;76.28;102430.44;5001283;28;20420;-76
2023/06/03 00:25:08;;;;;;;;;;;;;;;5.94;76.50;102435.34;5018840;28;19921;-76
2023/06/03 00:27:34;;;;;;;;;;;;;;;5.91;76.34;102438.41;4997410;28;19925;-77
2023/06/03 00:30:00;;;;;;;;;;;;;;;5.87;76.75;102429.16;4983164;28;19917;-76
2023/06/03 00:32:25;;;;;;;;;;;;;;;5.82;76.52;102431.56;4982016;28;19928;-76
2023/06/03 00:34:51;;;;;;;;;;;;;;;5.80;76.65;102430.94;4994246;28;19930;-76
2023/06/03 00:37:16;;;;;;;;;;;;;;;5.73;76.61;102431.72;4997308;28;19941;-76
2023/06/03 00:39:42;;;;;;;;;;;;;;;5.74;76.25;102436.03;5015791;28;19917;-76
2023/06/03 00:42:08;;;;;;;;;;;;;;;5.69;76.93;102438.47;5002699;28;19927;-76
2023/06/03 00:44:33;;;;;;;;;;;;;;;5.70;77.09;102437.44;5000915;28;19931;-76
2023/06/03 00:46:59;;;;;;;;;;;;;;;5.76;76.87;102435.84;4998833;28;19941;-76
2023/06/03 00:49:24;;;;;;;;;;;;;;;5.81;77.08;102444.03;4994079;28;19983;-76
2023/06/03 00:51:50;;;;;;;;;;;;;;;5.85;77.70;102444.47;4999939;28;19916;-75
2023/06/03 00:54:16;;;;;;;;;;;;;;;5.84;78.00;102446.31;4983264;28;19927;-76
2023/06/03 00:56:43;;;;;;;;;;;;;;;5.74;77.53;102438.69;4999983;28;19940;-75
2023/06/03 00:59:10;;;;;;;;;;;;;;;5.67;77.18;102448.47;5016999;28;19932;-76
2023/06/03 01:01:38;;;;;;;;;;;;;;;5.63;77.26;102447.22;4981189;28;19917;-76
2023/06/03 01:04:05;;;;;;;;;;;;;;;5.63;77.74;102454.38;4998766;28;20374;-75
2023/06/03 01:06:45;;;;;;;;;;;;;;;5.61;78.78;102454.56;4984238;28;20007;-76
2023/06/03 01:09:11;;;;;;;;;;;;;;;5.61;78.56;102445.75;4984463;28;20362;-75
2023/06/03 01:11:44;;;;;;;;;;;;;;;5.57;79.45;102458.63;4983807;28;19925;-76
2023/06/03 01:14:27;;;;;;;;;;;;;;;5.39;78.71;102447.66;5018511;28;19921;-76
2023/06/03 01:16:55;;;;;;;;;;;;;;;5.32;78.89;102446.78;4981627;28;19924;-75
2023/06/03 01:19:32;;;;;;;;;;;;;;;5.38;80.06;102446.03;5002267;28;19924;-75
2023/06/03 01:22:00;;;;;;;;;;;;;;;5.33;80.09;102451.09;4999795;28;19928;-76
2023/06/03 01:24:26;;;;;;;;;;;;;;;5.22;80.19;102454.28;4980873;28;20649;-75
2023/06/03 01:26:51;;;;;;;;;;;;;;;5.12;79.86;102451.94;4982986;28;20107;-77
2023/06/03 01:29:17;;;;;;;;;;;;;;;5.03;80.46;102458.41;4988935;28;19970;-76
2023/06/03 01:31:43;;;;;;;;;;;;;;;5.06;80.60;102461.50;4988428;28;19921;-76
2023/06/03 01:34:09;;;;;;;;;;;;;;;4.93;81.00;102458.72;4988646;28;19925;-76
2023/06/03 01:36:35;;;;;;;;;;;;;;;4.84;80.79;102459.84;4985922;28;20259;-76
2023/06/03 01:39:03;;;;;;;;;;;;;;;4.76;81.22;102460.81;4985603;28;20058;-75
2023/06/03 01:41:29;;;;;;;;;;;;;;;4.66;81.60;102453.13;4997219;28;19932;-75
2023/06/03 01:43:55;;;;;;;;;;;;;;;4.60;81.58;102453.88;5018282;28;19924;-76
2023/06/03 01:46:21;;;;;;;;;;;;;;;4.56;81.77;102454.47;5021838;28;19921;-76
2023/06/03 01:48:47;;;;;;;;;;;;;;;4.54;82.00;102459.13;5021273;28;19932;-76
2023/06/03 01:51:12;;;;;;;;;;;;;;;4.59;82.16;102457.56;4997755;28;19927;-76
2023/06/03 01:53:38;;;;;;;;;;;;;;;4.61;82.00;102457.41;5023691;28;20003;-76
2023/06/03 01:56:04;;;;;;;;;;;;;;;4.50;81.99;102463.19;4985478;28;19921;-76
2023/06/03 01:58:31;;;;;;;;;;;;;;;4.45;82.19;102455.78;5002611;28;19921;-76
2023/06/03 02:00:57;;;;;;;;;;;;;;;4.50;83.08;102464.00;5004226;28;19971;-75
2023/06/03 02:03:22;;;;;;;;;;;;;;;4.55;82.49;102472.22;4998619;28;20012;-76
2023/06/03 02:05:48;;;;;;;;;;;;;;;4.56;82.64;102467.75;5000117;28;20409;-75
2023/06/03 02:08:15;;;;;;;;;;;;;;;4.51;82.64;102460.34;4984601;28;20378;-76
2023/06/03 02:10:41;;;;;;;;;;;;;;;4.45;82.51;102461.06;5000419;28;19921;-75
2023/06/03 02:13:06;;;;;;;;;;;;;;;4.36;82.52;102456.91;4984652;28;19924;-75
2023/06/03 02:15:34;;;;;;;;;;;;;;;4.30;82.99;102457.63;5020470;28;20394;-75
2023/06/03 02:17:59;;;;;;;;;;;;;;;4.24;83.39;102456.53;5001481;28;19921;-75
2023/06/03 02:20:25;;;;;;;;;;;;;;;4.25;83.76;102460.03;5002962;28;19925;-75
2023/06/03 02:22:53;;;;;;;;;;;;;;;4.23;83.82;102456.75;4983061;28;19925;-75
2023/06/03 02:25:20;;;;;;;;;;;;;;;4.21;83.61;102464.88;5017920;28;19925;-75
2023/06/03 02:27:46;;;;;;;;;;;;;;;4.16;84.03;102463.78;4987772;28;20007;-74
2023/06/03 02:30:12;;;;;;;;;;;;;;;4.23;83.87;102451.44;4984739;28;19975;-75
2023/06/03 02:32:37;;;;;;;;;;;;;;;4.37;84.10;102463.84;4986379;28;19927;-75
2023/06/03 02:35:03;;;;;;;;;;;;;;;4.30;83.76;102455.81;4988325;28;19932;-75
2023/06/03 02:37:30;;;;;;;;;;;;;;;4.39;84.46;102454.69;5006492;28;19986;-75
2023/06/03 02:39:56;;;;;;;;;;;;;;;4.45;84.21;102455.78;5006899;28;19925;-75
2023/06/03 02:42:23;;;;;;;;;;;;;;;4.45;84.16;102458.41;4994030;28;19921;-75
2023/06/03 02:44:49;;;;;;;;;;;;;;;4.50;84.04;102456.03;5006513;28;19945;-76
2023/06/03 02:47:14;;;;;;;;;;;;;;;4.54;84.26;102449.38;5009921;28;19917;-75
2023/06/03 02:49:40;;;;;;;;;;;;;;;4.53;83.60;102453.00;4986982;28;19921;-75
2023/06/03 02:52:07;;;;;;;;;;;;;;;4.43;84.03;102454.31;5001479;28;20374;-75
2023/06/03 02:54:33;;;;;;;;;;;;;;;4.41;84.15;102451.88;4984361;28;19927;-75
2023/06/03 02:56:58;;;;;;;;;;;;;;;4.39;84.48;102462.63;4986275;28;19943;-75
2023/06/03 02:59:24;;;;;;;;;;;;;;;4.45;84.11;102468.22;5000845;28;19928;-75
2023/06/03 03:01:52;;;;;;;;;;;;;;;4.52;84.53;102456.66;4985861;28;19967;-76
2023/06/03 03:04:18;;;;;;;;;;;;;;;4.46;84.01;102462.72;4999157;28;20009;-75
2023/06/03 03:06:44;;;;;;;;;;;;;;;4.37;84.39;102456.72;5000690;28;19956;-75
2023/06/03 03:09:10;;;;;;;;;;;;;;;4.33;84.59;102467.88;4990920;28;20039;-75
2023/06/03 03:11:40;;;;;;;;;;;;;;;4.33;84.52;102467.88;5032068;28;19928;-75
2023/06/03 03:14:06;;;;;;;;;;;;;;;4.40;84.72;102463.47;5001240;28;19917;-75
2023/06/03 03:16:33;;;;;;;;;;;;;;;4.45;84.70;102468.22;5015020;28;19921;-75
2023/06/03 03:19:01;;;;;;;;;;;;;;;4.54;84.15;102473.25;5002023;28;20462;-76
2023/06/03 03:21:26;;;;;;;;;;;;;;;4.49;84.21;102478.28;4980184;28;19917;-76
2023/06/03 03:23:52;;;;;;;;;;;;;;;4.55;84.24;102477.53;5019348;28;19925;-75
2023/06/03 03:26:21;;;;;;;;;;;;;;;4.51;84.49;102476.25;4981264;28;19921;-76
2023/06/03 03:28:47;;;;;;;;;;;;;;;4.42;84.57;102481.88;4985173;28;19917;-75
2023/06/03 03:31:14;;;;;;;;;;;;;;;4.35;84.90;102476.47;4989268;28;19925;-76
2023/06/03 03:33:41;;;;;;;;;;;;;;;4.43;84.75;102483.50;4986736;28;19925;-76
2023/06/03 03:36:20;;;;;;;;;;;;;;;4.57;85.01;102475.50;4984478;28;20437;-74
2023/06/03 03:38:50;;;;;;;;;;;;;;;4.51;85.22;102481.56;5005109;28;19921;-75
2023/06/03 03:41:16;;;;;;;;;;;;;;;4.53;85.18;102479.53;4984012;28;19928;-75
2023/06/03 03:43:42;;;;;;;;;;;;;;;4.50;85.40;102479.91;5017604;28;19925;-75
2023/06/03 03:46:09;;;;;;;;;;;;;;;4.50;85.28;102471.97;5001226;28;19921;-76
2023/06/03 03:48:35;;;;;;;;;;;;;;;4.64;85.68;102481.72;5000459;28;19967;-75
2023/06/03 03:51:01;;;;;;;;;;;;;;;4.79;85.41;102488.78;5000880;28;20020;-76
2023/06/03 03:53:32;;;;;;;;;;;;;;;4.87;85.47;102480.72;5006488;28;19976;-75
2023/06/03 03:55:59;;;;;;;;;;;;;;;4.90;85.09;102483.81;5009886;28;19928;-75
2023/06/03 03:58:37;;;;;;;;;;;;;;;4.99;85.00;102479.19;4984414;28;19928;-75
2023/06/03 04:01:22;;;;;;;;;;;;;;;5.05;84.59;102483.75;4983547;28;20301;-76
2023/06/03 04:03:50;;;;;;;;;;;;;;;5.16;84.72;102488.56;4985195;28;19925;-76
2023/06/03 04:06:37;;;;;;;;;;;;;;;5.27;84.64;102487.22;4983264;28;19976;-76
2023/06/03 04:09:04;;;;;;;;;;;;;;;5.39;84.75;102490.16;5017785;28;19917;-76
2023/06/03 04:11:35;;;;;;;;;;;;;;;5.49;84.66;102485.38;4985815;28;20504;-75
2023/06/03 04:14:02;;;;;;;;;;;;;;;5.62;84.13;102485.47;4998642;28;19921;-76
2023/06/03 04:16:44;;;;;;;;;;;;;;;5.72;84.18;102487.75;5003345;28;19921;-75
2023/06/03 04:19:15;;;;;;;;;;;;;;;5.82;83.96;102490.06;4986460;28;19924;-76
2023/06/03 04:21:42;;;;;;;;;;;;;;;5.87;83.03;102479.66;4982762;28;19917;-75
2023/06/03 04:24:08;;;;;;;;;;;;;;;5.95;83.71;102484.84;4999583;28;19932;-76
2023/06/03 04:26:34;;;;;;;;;;;;;;;6.05;83.79;102488.00;5012704;28;19921;-76
2023/06/03 04:29:00;;;;;;;;;;;;;;;6.20;82.99;102493.19;4997393;28;19921;-75
2023/06/03 04:31:25;;;;;;;;;;;;;;;6.31;82.40;102491.81;4997671;28;19999;-76
2023/06/03 04:33:51;;;;;;;;;;;;;;;6.45;81.23;102488.16;5002377;28;19949;-75
2023/06/03 04:36:17;;;;;;;;;;;;;;;6.63;78.41;102483.09;4981232;28;19928;-76
2023/06/03 04:38:43;;;;;;;;;;;;;;;6.72;79.63;102475.75;4979510;28;19922;-76
2023/06/03 04:41:12;;;;;;;;;;;;;;;6.87;78.19;102478.25;4991892;28;20007;-76
2023/06/03 04:43:40;;;;;;;;;;;;;;;7.00;76.43;102478.25;4984880;28;19959;-75
2023/06/03 04:46:09;;;;;;;;;;;;;;;7.19;75.66;102482.78;5002862;28;19960;-75
2023/06/03 04:48:36;;;;;;;;;;;;;;;7.30;75.21;102484.81;4984227;28;19928;-76
2023/06/03 04:51:06;;;;;;;;;;;;;;;7.44;73.51;102487.50;5018432;28;19920;-76
2023/06/03 04:53:33;;;;;;;;;;;;;;;7.52;73.79;102492.59;4984489;28;19995;-77
2023/06/03 04:55:58;;;;;;;;;;;;;;;7.59;73.97;102493.44;5015201;28;19921;-76
2023/06/03 04:58:24;;;;;;;;;;;;;;;7.71;73.94;102489.09;4983882;28;19940;-77
2023/06/03 05:00:51;;;;;;;;;;;;;;;7.83;74.21;102491.97;5000629;28;19921;-77
2023/06/03 05:03:17;;;;;;;;;;;;;;;8.04;73.20;102482.88;4984978;28;19921;-77
2023/06/03 05:05:43;;;;;;;;;;;;;;;8.24;70.89;102486.28;4989894;28;19925;-76
2023/06/03 05:08:10;;;;;;;;;;;;;;;8.29;71.73;102481.16;4987569;28;19921;-77
2023/06/03 05:10:36;;;;;;;;;;;;;;;8.43;71.10;102485.44;5003957;28;19981;-76
2023/06/03 05:13:05;;;;;;;;;;;;;;;8.53;69.95;102484.97;4993969;28;19971;-77
2023/06/03 05:15:33;;;;;;;;;;;;;;;8.68;69.66;102479.34;4999685;28;19989;-77
2023/06/03 05:17:59;;;;;;;;;;;;;;;8.78;69.47;102477.03;5005244;28;20038;-76
2023/06/03 05:20:25;;;;;;;;;;;;;;;8.86;68.13;102484.78;5008158;28;20028;-77
2023/06/03 05:22:50;;;;;;;;;;;;;;;8.94;69.11;102476.53;5001657;28;19960;-77
2023/06/03 05:25:16;;;;;;;;;;;;;;;9.32;67.32;102483.63;4990107;28;19956;-77
2023/06/03 05:27:42;;;;;;;;;;;;;;;9.51;66.91;102485.31;5003442;28;19917;-77
2023/06/03 05:30:08;;;;;;;;;;;;;;;9.80;67.56;102491.00;4998120;28;19918;-76
2023/06/03 05:32:34;;;;;;;;;;;;;;;9.96;63.01;102498.44;4985616;28;20054;-76
2023/06/03 05:35:00;;;;;;;;;;;;;;;10.16;63.27;102489.34;5022016;28;20374;-77
2023/06/03 05:37:25;;;;;;;;;;;;;;;10.31;61.70;102495.19;5002484;28;19921;-76
2023/06/03 05:39:51;;;;;;;;;;;;;;;10.52;61.62;102492.03;4987593;28;20290;-78
2023/06/03 05:42:16;;;;;;;;;;;;;;;10.66;58.80;102485.44;4984246;28;19925;-77
2023/06/03 05:44:42;;;;;;;;;;;;;;;10.83;59.35;102484.78;4981829;28;19965;-77
2023/06/03 05:47:08;;;;;;;;;;;;;;;10.86;59.53;102482.50;5006426;28;19963;-77
2023/06/03 05:49:33;;;;;;;;;;;;;;;11.06;59.29;102490.22;5002809;28;19925;-77
2023/06/03 05:51:59;;;;;;;;;;;;;;;11.12;58.56;102500.03;4998140;28;19960;-77
2023/06/03 05:54:28;;;;;;;;;;;;;;;11.27;58.72;102493.41;4983191;28;20385;-77
2023/06/03 05:56:56;;;;;;;;;;;;;;;11.32;59.68;102493.53;5002968;28;19943;-76
2023/06/03 05:59:21;;;;;;;;;;;;;;;11.53;58.42;102494.84;4998946;28;19929;-78
2023/06/03 06:01:47;;;;;;;;;;;;;;;11.64;56.99;102491.31;4986155;28;19925;-78
2023/06/03 06:04:13;;;;;;;;;;;;;;;11.91;57.71;102487.13;4985278;28;20024;-79
2023/06/03 06:06:39;;;;;;;;;;;;;;;11.85;55.64;102500.66;4987501;28;19956;-78
2023/06/03 06:09:05;;;;;;;;;;;;;;;12.00;54.41;102495.66;5011665;28;19917;-77
2023/06/03 06:11:31;;;;;;;;;;;;;;;12.14;53.85;102507.75;5006000;28;19921;-76
2023/06/03 06:13:56;;;;;;;;;;;;;;;12.23;53.18;102498.28;5003804;28;19917;-77
2023/06/03 06:16:22;;;;;;;;;;;;;;;12.33;54.07;102497.69;4985419;28;19956;-77
2023/06/03 06:18:48;;;;;;;;;;;;;;;12.48;53.71;102494.47;4987698;28;19917;-76
2023/06/03 06:21:15;;;;;;;;;;;;;;;12.59;53.91;102493.59;4987522;28;19921;-76
2023/06/03 06:23:44;;;;;;;;;;;;;;;12.74;53.44;102499.25;4989652;28;19921;-77
2023/06/03 06:26:14;;;;;;;;;;;;;;;12.81;53.79;102496.44;5012744;28;19905;-77
2023/06/03 06:28:41;;;;;;;;;;;;;;;13.05;52.57;102497.09;4993642;28;19924;-77
2023/06/03 06:31:09;;;;;;;;;;;;;;;13.18;52.35;102495.97;5004411;28;19921;-76
2023/06/03 06:33:41;;;;;;;;;;;;;;;13.23;52.22;102502.28;5018199;28;19928;-77
2023/06/03 06:36:16;;;;;;;;;;;;;;;13.46;51.56;102497.78;5003187;28;19928;-77
2023/06/03 06:38:42;;;;;;;;;;;;;;;13.69;51.52;102502.19;5016527;28;19917;-77
2023/06/03 06:41:11;;;;;;;;;;;;;;;13.66;50.43;102503.47;4999545;28;19921;-78
2023/06/03 06:43:39;;;;;;;;;;;;;;;13.72;50.60;102501.66;5006600;28;19921;-77
2023/06/03 06:46:08;;;;;;;;;;;;;;;13.75;51.58;102502.00;5002070;28;19948;-77
2023/06/03 06:48:34;;;;;;;;;;;;;;;13.74;51.85;102505.72;5028956;28;20398;-77
2023/06/03 06:51:02;;;;;;;;;;;;;;;14.03;49.92;102502.91;4989283;28;20279;-77
2023/06/03 06:53:32;;;;;;;;;;;;;;;14.02;48.42;102507.50;5005308;28;19991;-78
2023/06/03 06:56:04;;;;;;;;;;;;;;;14.08;47.13;102494.88;4983321;28;19940;-76
2023/06/03 06:58:35;;;;;;;;;;;;;;;14.17;47.37;102496.09;4986912;28;20301;-75
2023/06/03 07:01:05;;;;;;;;;;;;;;;14.25;47.64;102495.63;4984922;28;20461;-76
2023/06/03 07:03:31;;;;;;;;;;;;;;;14.47;45.77;102482.16;5017961;28;19925;-76
2023/06/03 07:05:57;;;;;;;;;;;;;;;14.59;46.67;102490.13;5002698;28;19928;-77
2023/06/03 07:08:25;;;;;;;;;;;;;;;14.69;46.22;102495.59;5018350;28;19928;-76
2023/06/03 07:10:54;;;;;;;;;;;;;;;14.71;46.83;102493.47;4986156;28;19917;-75
2023/06/03 07:13:20;;;;;;;;;;;;;;;14.98;44.04;102493.47;5005340;28;19917;-75
2023/06/03 07:15:46;;;;;;;;;;;;;;;14.87;45.13;102486.34;5002287;28;19925;-77
2023/06/03 07:18:12;;;;;;;;;;;;;;;14.77;43.76;102491.63;4982443;28;19924;-77
2023/06/03 07:20:40;;;;;;;;;;;;;;;15.05;43.66;102483.28;5002186;28;20329;-77
2023/06/03 07:23:10;;;;;;;;;;;;;;;14.97;44.33;102481.88;4986482;28;19970;-77
2023/06/03 07:25:43;;;;;;;;;;;;;;;15.11;43.84;102478.75;5000839;28;19964;-77
2023/06/03 07:28:11;;;;;;;;;;;;;;;15.41;42.35;102484.34;5002351;28;19964;-76
2023/06/03 07:30:38;;;;;;;;;;;;;;;15.46;42.63;102487.09;4999031;28;19928;-76
2023/06/03 07:33:05;;;;;;;;;;;;;;;15.67;41.61;102479.97;4982552;28;20410;-77
2023/06/03 07:35:35;;;;;;;;;;;;;;;16.06;40.98;102485.03;5012930;28;20657;-76
2023/06/03 07:38:02;;;;;;;;;;;;;;;15.49;41.05;102483.84;5022923;28;19925;-77
2023/06/03 07:40:38;;;;;;;;;;;;;;;15.45;41.99;102477.38;4997785;28;19917;-76
2023/06/03 07:43:03;;;;;;;;;;;;;;;15.75;42.64;102474.06;5016484;28;20076;-76
2023/06/03 07:45:29;;;;;;;;;;;;;;;15.84;42.55;102485.16;4981932;28;20378;-78
2023/06/03 07:47:56;;;;;;;;;;;;;;;16.08;41.88;102486.38;4999740;28;19986;-77
2023/06/03 07:50:25;;;;;;;;;;;;;;;15.83;40.57;102486.25;4984452;28;20529;-78
2023/06/03 07:52:58;;;;;;;;;;;;;;;15.78;40.53;102480.81;4999750;28;19917;-78
2023/06/03 07:55:24;;;;;;;;;;;;;;;15.77;41.19;102485.41;4982801;28;20271;-76
2023/06/03 07:57:50;;;;;;;;;;;;;;;16.04;40.43;102484.44;5001891;28;19923;-77
2023/06/03 08:00:16;;;;;;;;;;;;;;;16.15;39.16;102488.03;5014630;28;19917;-77
2023/06/03 08:02:42;;;;;;;;;;;;;;;16.45;39.44;102479.19;4979655;28;20011;-77
2023/06/03 08:05:08;;;;;;;;;;;;;;;16.74;38.57;102474.16;4983911;28;19972;-78
2023/06/03 08:07:33;;;;;;;;;;;;;;;16.82;39.33;102469.00;4997917;28;19936;-77
2023/06/03 08:09:59;;;;;;;;;;;;;;;17.31;36.66;102481.19;4991169;28;19929;-77
2023/06/03 08:12:30;;;;;;;;;;;;;;;17.38;38.07;102470.88;4982549;28;19944;-77
2023/06/03 08:14:56;;;;;;;;;;;;;;;17.28;38.83;102465.50;4999418;28;19924;-77
2023/06/03 08:17:29;;;;;;;;;;;;;;;17.50;37.30;102474.09;5003805;28;19921;-76
2023/06/03 08:19:55;;;;;;;;;;;;;;;17.50;37.36;102471.41;4995693;28;20731;-77
2023/06/03 08:22:23;;;;;;;;;;;;;;;17.15;37.26;102473.06;4977294;28;19971;-78
2023/06/03 08:24:49;;;;;;;;;;;;;;;17.13;37.50;102469.81;4996299;28;19932;-76
2023/06/03 08:27:15;;;;;;;;;;;;;;;17.23;37.11;102473.59;4987502;28;19921;-77
2023/06/03 08:29:40;;;;;;;;;;;;;;;17.44;37.22;102467.88;4985670;28;19924;-77
2023/06/03 08:32:06;;;;;;;;;;;;;;;17.62;37.28;102477.34;5016731;28;19990;-76
2023/06/03 08:34:31;;;;;;;;;;;;;;;17.22;36.52;102469.28;5013141;28;19917;-78
2023/06/03 08:36:57;;;;;;;;;;;;;;;17.40;37.33;102477.63;5006944;28;20583;-77
2023/06/03 08:39:23;;;;;;;;;;;;;;;17.56;37.42;102475.72;4987597;28;19921;-77
2023/06/03 08:41:52;;;;;;;;;;;;;;;17.68;38.23;102480.84;5018028;28;20008;-77
2023/06/03 08:44:22;;;;;;;;;;;;;;;18.26;37.22;102482.00;5007930;28;20266;-77
2023/06/03 08:46:59;;;;;;;;;;;;;;;17.91;36.49;102487.56;4987790;28;20370;-78
2023/06/03 08:49:30;;;;;;;;;;;;;;;18.27;36.19;102475.47;4996179;28;19928;-76
2023/06/03 08:51:57;;;;;;;;;;;;;;;18.27;35.07;102483.59;4988726;28;19917;-77
2023/06/03 08:54:29;;;;;;;;;;;;;;;18.63;35.26;102479.88;4999695;28;19956;-77
2023/06/03 08:57:02;;;;;;;;;;;;;;;18.40;36.08;102478.66;4987677;28;19963;-76
2023/06/03 08:59:28;;;;;;;;;;;;;;;18.88;33.94;102481.63;5013055;28;19967;-76
2023/06/03 09:01:55;;;;;;;;;;;;;;;18.49;34.77;102480.53;4998944;28;19956;-75
2023/06/03 09:04:21;;;;;;;;;;;;;;;18.79;34.22;102478.72;5017926;28;19925;-77
2023/06/03 09:06:48;;;;;;;;;;;;;;;18.81;33.23;102474.59;5014992;28;19924;-76
2023/06/03 09:09:14;;;;;;;;;;;;;;;18.87;34.89;102469.97;4998300;28;19963;-76
2023/06/03 09:11:42;;;;;;;;;;;;;;;19.03;33.75;102473.34;5029995;28;20492;-77
2023/06/03 09:14:08;;;;;;;;;;;;;;;19.50;32.69;102463.66;5003313;28;19921;-76
2023/06/03 09:16:35;;;;;;;;;;;;;;;19.54;32.10;102470.97;5006901;28;20593;-77
2023/06/03 09:19:01;;;;;;;;;;;;;;;19.01;32.72;102467.41;4990368;28;19961;-78
2023/06/03 09:21:26;;;;;;;;;;;;;;;19.03;32.22;102457.91;5015562;28;19968;-76
2023/06/03 09:23:52;;;;;;;;;;;;;;;19.00;33.20;102457.63;5000653;28;19925;-76
2023/06/03 09:26:18;;;;;;;;;;;;;;;19.00;31.90;102460.34;4984711;28;19920;-77
2023/06/03 09:28:44;;;;;;;;;;;;;;;19.45;32.18;102461.03;4985578;28;19921;-77
2023/06/03 09:31:10;;;;;;;;;;;;;;;19.43;31.73;102457.78;4986774;28;19921;-76
2023/06/03 09:33:36;;;;;;;;;;;;;;;19.49;31.60;102459.34;5001140;28;19931;-77
2023/06/03 09:36:06;;;;;;;;;;;;;;;18.60;32.61;102458.72;5002648;28;20263;-78
2023/06/03 09:38:52;;;;;;;;;;;;;;;19.06;32.44;102457.31;5000866;28;19921;-77
2023/06/03 09:41:18;;;;;;;;;;;;;;;18.78;31.53;102456.19;5017444;28;19921;-77
2023/06/03 09:43:51;;;;;;;;;;;;;;;19.20;32.03;102456.66;4989889;28;19925;-76
2023/06/03 09:46:16;;;;;;;;;;;;;;;19.44;31.44;102452.06;5018183;28;19918;-76
2023/06/03 09:48:42;;;;;;;;;;;;;;;19.84;31.72;102450.78;4984460;28;19917;-77
2023/06/03 09:51:07;;;;;;;;;;;;;;;20.11;32.25;102446.66;5019820;28;19928;-77
2023/06/03 09:53:33;;;;;;;;;;;;;;;20.16;31.61;102454.75;4988687;28;20317;-77
2023/06/03 09:56:19;;;;;;;;;;;;;;;20.06;31.21;102458.44;4982322;28;20287;-77
2023/06/03 09:58:45;;;;;;;;;;;;;;;19.69;30.92;102452.91;4986501;28;19921;-79
2023/06/03 10:01:11;;;;;;;;;;;;;;;19.73;31.02;102454.75;4995530;28;20382;-76
2023/06/03 10:03:37;;;;;;;;;;;;;;;19.89;29.83;102458.09;5010969;28;19961;-77
2023/06/03 10:06:18;;;;;;;;;;;;;;;20.14;32.91;102451.53;5023569;28;19927;-76
2023/06/03 10:08:44;;;;;;;;;;;;;;;20.07;32.34;102453.78;5002608;28;19924;-80
2023/06/03 10:11:09;;;;;;;;;;;;;;;20.34;30.48;102458.59;5019316;28;19921;-79
2023/06/03 10:13:35;;;;;;;;;;;;;;;20.42;30.73;102453.28;5005087;28;19980;-76
2023/06/03 10:16:02;;;;;;;;;;;;;;;20.56;29.09;102449.88;4999558;28;19921;-76
2023/06/03 10:18:35;;;;;;;;;;;;;;;20.49;29.25;102454.88;4987655;28;19923;-78
2023/06/03 10:21:05;;;;;;;;;;;;;;;19.98;30.32;102456.34;4999699;28;19920;-78
2023/06/03 10:23:31;;;;;;;;;;;;;;;20.29;29.21;102451.31;4999859;28;19921;-78
2023/06/03 10:25:57;;;;;;;;;;;;;;;20.15;29.32;102447.69;4988212;28;19917;-75
2023/06/03 10:28:23;;;;;;;;;;;;;;;20.33;29.50;102444.19;4999742;28;19971;-79
2023/06/03 10:30:49;;;;;;;;;;;;;;;20.47;30.02;102444.28;5005737;28;19920;-77
2023/06/03 10:33:15;;;;;;;;;;;;;;;20.95;30.67;102436.69;4987933;28;19943;-75
2023/06/03 10:35:42;;;;;;;;;;;;;;;20.71;30.44;102438.72;5002273;28;19921;-79
2023/06/03 10:38:08;;;;;;;;;;;;;;;20.82;28.84;102437.47;4989420;28;20305;-79
2023/06/03 10:40:34;;;;;;;;;;;;;;;20.29;28.76;102434.19;4986580;28;20363;-78
2023/06/03 10:42:59;;;;;;;;;;;;;;;20.89;28.99;102435.16;4986501;28;19928;-76
2023/06/03 10:45:26;;;;;;;;;;;;;;;20.60;29.82;102423.69;4988335;28;19925;-79
2023/06/03 10:48:00;;;;;;;;;;;;;;;20.52;29.80;102424.31;4984090;28;19948;-76
2023/06/03 10:50:28;;;;;;;;;;;;;;;21.11;29.39;102422.78;4984034;28;20267;-77
2023/06/03 10:53:07;;;;;;;;;;;;;;;21.05;29.03;102419.34;5007711;28;19932;-77
2023/06/03 10:55:38;;;;;;;;;;;;;;;20.71;28.83;102416.94;4997681;28;19952;-77
2023/06/03 10:58:30;;;;;;;;;;;;;;;20.82;29.35;102420.31;5005543;28;19925;-76
2023/06/03 11:01:00;;;;;;;;;;;;;;;20.22;29.09;102418.22;5021698;28;19925;-76
2023/06/03 11:03:30;;;;;;;;;;;;;;;20.49;30.68;102420.28;4985666;28;19932;-78
2023/06/03 11:06:35;;;;;;;;;;;;;;;20.93;31.00;102419.00;5002981;28;19947;-78
2023/06/03 11:09:08;;;;;;;;;;;;;;;21.74;31.94;102419.41;4964268;28;19929;-77
2023/06/03 11:11:52;;;;;;;;;;;;;;;21.67;29.36;102419.00;4958886;28;19947;-78
2023/06/03 11:14:24;;;;;;;;;;;;;;;21.58;28.42;102416.19;4978759;28;19917;-78
2023/06/03 11:16:56;;;;;;;;;;;;;;;22.07;29.13;102412.69;5002664;28;19921;-76
2023/06/03 11:19:37;;;;;;;;;;;;;;;21.05;29.60;102410.38;4998401;28;19936;-79
2023/06/03 11:22:09;;;;;;;;;;;;;;;21.65;30.54;102413.06;4989939;28;19921;-75
2023/06/03 11:24:38;;;;;;;;;;;;;;;21.50;32.11;102403.28;4982727;28;19925;-77
2023/06/03 11:27:10;;;;;;;;;;;;;;;21.70;29.99;102402.06;4998358;28;19979;-78
2023/06/03 11:29:57;;;;;;;;;;;;;;;21.82;28.45;102407.81;4986182;28;20307;-77
2023/06/03 11:32:27;;;;;;;;;;;;;;;21.95;28.74;102398.81;4993798;28;19922;-78
2023/06/03 11:34:59;;;;;;;;;;;;;;;20.80;27.82;102396.13;5017877;28;19921;-80
2023/06/03 11:37:43;;;;;;;;;;;;;;;21.03;28.63;102401.72;5000493;28;20359;-82
2023/06/03 11:40:12;;;;;;;;;;;;;;;21.44;27.95;102399.03;4978675;28;19917;-77
2023/06/03 11:42:44;;;;;;;;;;;;;;;21.45;27.36;102400.66;4983491;28;19931;-76
2023/06/03 11:45:24;;;;;;;;;;;;;;;20.78;31.12;102398.31;4987237;28;19948;-77
2023/06/03 11:47:51;;;;;;;;;;;;;;;20.54;29.94;102397.66;4982351;28;19921;-78
2023/06/03 11:50:20;;;;;;;;;;;;;;;21.29;29.77;102397.44;4997596;28;19956;-79
2023/06/03 11:52:48;;;;;;;;;;;;;;;21.64;28.82;102392.38;4985944;28;20310;-78
2023/06/03 11:55:23;;;;;;;;;;;;;;;21.98;26.72;102397.38;5003952;28;19971;-78
2023/06/03 11:57:49;;;;;;;;;;;;;;;21.67;26.96;102389.81;4979780;28;19928;-78
2023/06/03 12:00:15;;;;;;;;;;;;;;;21.08;27.75;102385.28;5001829;28;20669;-78
2023/06/03 12:02:42;;;;;;;;;;;;;;;21.76;28.13;102387.22;5001415;28;19980;-76
2023/06/03 12:05:08;;;;;;;;;;;;;;;21.12;27.07;102380.81;4984258;28;19917;-78
2023/06/03 12:07:34;;;;;;;;;;;;;;;21.56;27.37;102377.53;4984419;28;19928;-77
2023/06/03 12:10:00;;;;;;;;;;;;;;;21.64;27.08;102382.28;5001348;28;20373;-76
2023/06/03 12:12:25;;;;;;;;;;;;;;;22.37;26.83;102377.66;4985314;28;19921;-76
2023/06/03 12:14:51;;;;;;;;;;;;;;;22.49;26.47;102383.38;5018410;28;19921;-76
2023/06/03 12:17:18;;;;;;;;;;;;;;;22.19;26.25;102384.09;4985626;28;19921;-79
2023/06/03 12:19:45;;;;;;;;;;;;;;;22.38;26.07;102370.28;4980895;28;19921;-78
2023/06/03 12:22:11;;;;;;;;;;;;;;;22.36;24.91;102383.44;5001816;28;19928;-77
2023/06/03 12:24:40;;;;;;;;;;;;;;;22.72;24.76;102366.97;5032355;28;20531;-79
2023/06/03 12:27:11;;;;;;;;;;;;;;;22.93;24.50;102378.19;5002422;28;19931;-77
2023/06/03 12:29:41;;;;;;;;;;;;;;;22.93;24.09;102361.81;4986146;28;19925;-80
2023/06/03 12:32:06;;;;;;;;;;;;;;;22.43;24.18;102365.50;5019786;28;19928;-78
2023/06/03 12:34:35;;;;;;;;;;;;;;;23.22;24.36;102361.28;5004198;28;19924;-78
2023/06/03 12:37:02;;;;;;;;;;;;;;;22.46;25.00;102369.53;4998750;28;19921;-79
2023/06/03 12:39:40;;;;;;;;;;;;;;;22.85;25.05;102360.63;4995303;28;19928;-78
2023/06/03 12:42:06;;;;;;;;;;;;;;;23.14;23.94;102358.19;5003785;28;20387;-78
2023/06/03 12:44:43;;;;;;;;;;;;;;;22.86;25.10;102363.06;4999389;28;19926;-78